• Join FlightAware (Why Join?)
  • Login
  • US Flag 
01:41AM EDT


 

Airport Tracker/Info


-or-


 

Live Flight TrackerFlight Track Log ✈ DAL2365 ✈ 05-May-2013 ✈ KLAX - PHNL

Flight Track Log - Related Links

Times and Time Zones

All times are in EDT time to prevent confusion due to time zone crossing. See the DAL2365 flight status page for this flight to view local times or setup timezone preferences in your user account.

Time Position Orientation Groundspeed Altitude Reporting Facility
EDT Latitude Longitude Course Direction KTS MPH feet Rate Location/Type
11:47AM 33.9400 -118.3475 260° West 190 219 2,300  Level Los Angeles Center
11:48AM 33.9386 -118.2711 91° East 227 261 4,500 2,220 Climbing Los Angeles Center
11:49AM 33.9292 -118.1842 97° East 252 290 6,900 1,620 Climbing Los Angeles Center
11:50AM 33.9000 -118.7919 270° West  Level FlightAware Approximate
11:50AM 33.8700 -118.1897 184° South 257 296 7,900  Level Los Angeles Center
11:51AM 33.8813 -118.9245 264° West  Level FlightAware Approximate
11:51AM 33.8436 -118.2925 253° West 283 326 10,900  Level Los Angeles Center
11:52AM 33.8701 -119.0594 264° West  Level FlightAware Approximate
11:52AM 33.8550 -118.3975 277° West 334 384 12,500  Level Los Angeles Center
11:53AM 33.8651 -119.1946 260° West  Level FlightAware Approximate
11:54AM 33.8686 -118.5269 277° West 375 432 14,500  Level Los Angeles Center
11:55AM 33.8647 -118.6622 268° West 376 433 17,300 2,580 Climbing Los Angeles Center
11:56AM 33.8544 -118.7953 265° West 383 441 19,800 2,160 Climbing Los Angeles Center
11:57AM 33.8431 -118.9267 264° West 396 456 21,800 1,740 Climbing Los Angeles Center
11:58AM 33.8317 -119.0647 264° West 416 479 23,500 1,620 Climbing Los Angeles Center
11:59AM 33.8192 -119.2053 264° West 422 486 25,200 1,560 Climbing Los Angeles Center
12:00PM 33.8006 -119.3497 261° West 436 502 26,800 1,500 Climbing Los Angeles Center
12:01PM 33.7414 -119.4817 242° Southwest 448 516 28,300 1,920 Climbing Los Angeles Center
12:02PM 33.6861 -119.6142 243° Southwest 446 513 30,800 2,280 Climbing Los Angeles Center
12:03PM 33.6333 -119.7708 248° West 428 493 33,000 1,920 Climbing Los Angeles Center
12:04PM 33.6194 -119.9092 263° West 421 484 34,800 960 Climbing Los Angeles Center
12:05PM 33.6056 -120.0453 263° West 414 476 35,000 60 Climbing Los Angeles Center
12:06PM 33.5911 -120.1919 263° West 413 475 35,000  Level Los Angeles Center
12:07PM 33.5769 -120.3286 263° West 413 475 35,000  Level Los Angeles Center
12:08PM 33.5625 -120.4658 263° West 413 475 35,000  Level Los Angeles Center
12:09PM 33.5481 -120.6056 263° West 419 482 35,000  Level Los Angeles Center
12:10PM 33.5333 -120.7447 263° West 419 482 35,000  Level Los Angeles Center
12:11PM 33.5172 -120.8839 262° West 420 483 35,000  Level Los Angeles Center
12:12PM 33.5031 -121.0242 263° West 422 486 35,000  Level Los Angeles Center
12:13PM 33.4869 -121.1642 262° West 425 489 35,000  Level Los Angeles Center
12:14PM 33.4681 -121.3331 262° West 425 489 35,000  Level Los Angeles Center
12:15PM 33.4525 -121.4761 263° West 430 495 35,000  Level Los Angeles Center
12:16PM 33.4367 -121.6172 262° West 429 494 35,000  Level Los Angeles Center
12:17PM 33.4211 -121.7608 263° West 434 499 35,000  Level Los Angeles Center
12:18PM 33.4039 -121.9031 262° West 432 497 35,000  Level Los Angeles Center
12:19PM 33.3869 -122.0453 262° West 432 497 35,000  Level Los Angeles Center
12:20PM 33.3664 -122.2156 262° West 431 496 35,000  Level Los Angeles Center
12:21PM 33.3511 -122.3572 263° West 431 496 35,000  Level Los Angeles Center
12:22PM 33.3333 -122.4967 261° West 428 493 35,000  Level Los Angeles Center
12:24PM 33.3134 -122.6496 261° West  Level FlightAware Approximate
12:31PM 33.1882 -123.5793 261° West  Level FlightAware Approximate
12:32PM 33.1697 -123.7118 261° West  Level FlightAware Approximate
12:33PM 33.1511 -123.8444 261° West  Level FlightAware Approximate
12:34PM 33.1324 -123.9768 260° West  Level FlightAware Approximate
12:35PM 33.1135 -124.1093 260° West  Level FlightAware Approximate
12:36PM 33.0945 -124.2416 260° West  Level FlightAware Approximate
12:37PM 33.0753 -124.3739 260° West  Level FlightAware Approximate
12:38PM 33.0667 -124.5073 270° West  Level FlightAware Approximate
12:38PM 33.0667 -124.5167 255° West 431 496 35,000  Level Oakland Oceanic (ODAPS)
12:39PM 33.0397 -124.6373 255° West  Level FlightAware Approximate
12:39PM 33.0000 -124.8000 255° West 432 497 35,000  Level Oakland Oceanic (ODAPS)
12:40PM 33.0106 -124.7669 255° West  Level FlightAware Approximate
12:41PM 32.9813 -124.8964 255° West  Level FlightAware Approximate
12:42PM 32.9521 -125.0250 255° West  Level FlightAware Approximate
12:43PM 32.9231 -125.1523 255° West  Level FlightAware Approximate
12:44PM 32.8501 -125.4695 255° West 431 496 35,000  Level FlightAware Transoceanic
12:45PM 32.8101 -125.6296 255° West 432 497 35,000  Level FlightAware Transoceanic
12:45PM 32.8333 -125.5667 254° West 434 499 35,000  Level Oakland Oceanic (ODAPS)
12:46PM 32.7779 -125.7676 254° West 432 497 35,000  Level FlightAware Transoceanic
12:47PM 32.7455 -125.9054 254° West 432 497 35,000  Level FlightAware Transoceanic
12:48PM 32.7131 -126.0431 254° West 432 497 35,000  Level FlightAware Transoceanic
12:49PM 32.6804 -126.1808 254° West 432 497 35,000  Level FlightAware Transoceanic
12:50PM 32.6476 -126.3183 254° West 432 497 35,000  Level FlightAware Transoceanic
12:51PM 32.6354 -126.4009 254° West 434 499 35,000  Level FlightAware Transoceanic
12:52PM 32.6019 -126.5396 254° West 434 499 35,000  Level FlightAware Transoceanic
12:53PM 32.5682 -126.6782 254° West 434 499 35,000  Level FlightAware Transoceanic
12:54PM 32.5344 -126.8166 254° West 434 499 35,000  Level FlightAware Transoceanic
12:55PM 32.5004 -126.9550 254° West 434 499 35,000  Level FlightAware Transoceanic
12:56PM 32.4663 -127.0933 254° West 434 499 35,000  Level FlightAware Transoceanic
12:57PM 32.4320 -127.2314 254° West 434 499 35,000  Level FlightAware Transoceanic
12:58PM 32.3976 -127.3695 254° West 434 499 35,000  Level FlightAware Transoceanic
12:58PM 32.3667 -127.4833 253° West 431 496 35,000  Level Oakland Oceanic (ODAPS)
12:59PM 32.3630 -127.5074 253° West 434 499 35,000  Level FlightAware Transoceanic
01:00PM 32.3283 -127.6453 253° West 434 499 35,000  Level FlightAware Transoceanic
01:01PM 32.2934 -127.7830 253° West 434 499 35,000  Level FlightAware Transoceanic
01:02PM 32.2583 -127.9206 253° West 434 499 35,000  Level FlightAware Transoceanic
01:03PM 32.2231 -128.0582 253° West 434 499 35,000  Level FlightAware Transoceanic
01:04PM 32.1878 -128.1956 253° West 434 499 35,000  Level FlightAware Transoceanic
01:05PM 32.1555 -128.3131 253° West 431 496 35,000  Level FlightAware Transoceanic
01:06PM 32.1198 -128.4510 253° West 431 496 35,000  Level FlightAware Transoceanic
01:07PM 32.0839 -128.5888 253° West 431 496 35,000  Level FlightAware Transoceanic
01:08PM 32.0479 -128.7265 253° West 431 496 35,000  Level FlightAware Transoceanic
01:09PM 32.0117 -128.8641 253° West 431 496 35,000  Level FlightAware Transoceanic
01:10PM 31.9754 -129.0016 253° West 431 496 35,000  Level FlightAware Transoceanic
01:11PM 31.9390 -129.1390 253° West 431 496 35,000  Level FlightAware Transoceanic
01:12PM 31.9024 -129.2763 253° West 431 496 35,000  Level FlightAware Transoceanic
01:12PM 31.8833 -129.3500 252° West 430 495 35,000  Level Oakland Oceanic (ODAPS)
01:13PM 31.8656 -129.4134 252° West 431 496 35,000  Level FlightAware Transoceanic
01:14PM 31.8287 -129.5505 252° West 431 496 35,000  Level FlightAware Transoceanic
01:15PM 31.7916 -129.6874 252° West 431 496 35,000  Level FlightAware Transoceanic
01:16PM 31.7544 -129.8242 252° West 431 496 35,000  Level FlightAware Transoceanic
01:17PM 31.7171 -129.9610 252° West 431 496 35,000  Level FlightAware Transoceanic
01:18PM 31.6796 -130.0976 252° West 431 496 35,000  Level FlightAware Transoceanic
01:19PM 31.6547 -130.1899 252° West 430 495 35,000  Level FlightAware Transoceanic
01:20PM 31.6160 -130.3295 252° West 430 495 35,000  Level FlightAware Transoceanic
01:21PM 31.5772 -130.4689 252° West 430 495 35,000  Level FlightAware Transoceanic
01:22PM 31.5383 -130.6083 252° West 430 495 35,000  Level FlightAware Transoceanic
01:23PM 31.4992 -130.7475 252° West 430 495 35,000  Level FlightAware Transoceanic
01:24PM 31.4599 -130.8866 252° West 430 495 35,000  Level FlightAware Transoceanic
01:25PM 31.4205 -131.0256 252° West 430 495 35,000  Level FlightAware Transoceanic
01:26PM 31.3810 -131.1645 252° West 430 495 35,000  Level FlightAware Transoceanic
01:26PM 31.3667 -131.2333 251° West 431 496 35,000  Level Oakland Oceanic (ODAPS)
01:27PM 31.3413 -131.3032 251° West 430 495 35,000  Level FlightAware Transoceanic
01:28PM 31.3015 -131.4419 251° West 430 495 35,000  Level FlightAware Transoceanic
01:29PM 31.2615 -131.5804 251° West 430 495 35,000  Level FlightAware Transoceanic
01:30PM 31.2213 -131.7188 251° West 430 495 35,000  Level FlightAware Transoceanic
01:31PM 31.1810 -131.8571 251° West 430 495 35,000  Level FlightAware Transoceanic
01:32PM 31.1385 -132.0051 251° West 431 496 35,000  Level FlightAware Transoceanic
01:33PM 31.1000 -132.1333 251° West 431 496 35,000  Level FlightAware Transoceanic
01:33PM 31.1000 -132.1333 251° West 429 494 35,000  Level Oakland Oceanic (ODAPS)
01:34PM 31.0607 -132.2668 251° West 431 496 35,000  Level FlightAware Transoceanic
01:35PM 31.0214 -132.4001 251° West 431 496 35,000  Level FlightAware Transoceanic
01:36PM 30.9818 -132.5333 251° West 431 496 35,000  Level FlightAware Transoceanic
01:37PM 30.9422 -132.6664 251° West 431 496 35,000  Level FlightAware Transoceanic
01:38PM 30.9024 -132.7994 251° West 431 496 35,000  Level FlightAware Transoceanic
01:39PM 30.8625 -132.9323 251° West 431 496 35,000  Level FlightAware Transoceanic
01:40PM 30.8273 -133.0487 251° West 429 494 35,000  Level FlightAware Transoceanic
01:40PM 30.8333 -133.0500 251° West 423 487 35,000  Level Oakland Oceanic (ODAPS)
01:41PM 30.7878 -133.1791 251° West 429 494 35,000  Level FlightAware Transoceanic
01:42PM 30.7482 -133.3093 250° West 429 494 35,000  Level FlightAware Transoceanic
01:43PM 30.7085 -133.4394 250° West 429 494 35,000  Level FlightAware Transoceanic
01:44PM 30.6686 -133.5694 250° West 429 494 35,000  Level FlightAware Transoceanic
01:45PM 30.6286 -133.6994 250° West 429 494 35,000  Level FlightAware Transoceanic
01:46PM 30.5985 -133.8151 250° West 423 487 35,000  Level FlightAware Transoceanic
01:47PM 30.5590 -133.9422 250° West 423 487 35,000  Level FlightAware Transoceanic
01:48PM 30.5193 -134.0693 250° West 423 487 35,000  Level FlightAware Transoceanic
01:49PM 30.4795 -134.1962 250° West 423 487 35,000  Level FlightAware Transoceanic
01:50PM 30.4395 -134.3230 250° West 423 487 35,000  Level FlightAware Transoceanic
01:51PM 30.3995 -134.4498 250° West 423 487 35,000  Level FlightAware Transoceanic
01:52PM 30.3593 -134.5764 250° West 423 487 35,000  Level FlightAware Transoceanic
01:53PM 30.3190 -134.7029 250° West 423 487 35,000  Level FlightAware Transoceanic
01:54PM 30.2785 -134.8293 250° West 423 487 35,000  Level FlightAware Transoceanic
01:54PM 30.2833 -134.8167 250° West 422 486 35,000  Level Oakland Oceanic (ODAPS)
01:55PM 30.2380 -134.9557 250° West 423 487 35,000  Level FlightAware Transoceanic
01:56PM 30.1973 -135.0819 250° West 423 487 35,000  Level FlightAware Transoceanic
01:57PM 30.1565 -135.2080 249° West 423 487 35,000  Level FlightAware Transoceanic
01:58PM 30.1156 -135.3340 249° West 423 487 35,000  Level FlightAware Transoceanic
01:59PM 30.0746 -135.4599 249° West 423 487 35,000  Level FlightAware Transoceanic
02:00PM 30.0375 -135.5751 249° West 422 486 35,000  Level FlightAware Transoceanic
02:01PM 29.9961 -135.7012 249° West 422 486 35,000  Level FlightAware Transoceanic
02:02PM 29.9546 -135.8271 249° West 422 486 35,000  Level FlightAware Transoceanic
02:03PM 29.9130 -135.9529 249° West 422 486 35,000  Level FlightAware Transoceanic
02:04PM 29.8713 -136.0786 249° West 422 486 35,000  Level FlightAware Transoceanic
02:05PM 29.8294 -136.2043 249° West 422 486 35,000  Level FlightAware Transoceanic
02:06PM 29.7874 -136.3298 249° West 422 486 35,000  Level FlightAware Transoceanic
02:07PM 29.7453 -136.4552 249° West 422 486 35,000  Level FlightAware Transoceanic
02:08PM 29.7031 -136.5805 249° West 422 486 35,000  Level FlightAware Transoceanic
02:08PM 29.7000 -136.5667 249° West 425 489 35,000  Level Oakland Oceanic (ODAPS)
02:09PM 29.6607 -136.7057 249° West 422 486 35,000  Level FlightAware Transoceanic
02:10PM 29.6183 -136.8308 249° West 422 486 35,000  Level FlightAware Transoceanic
02:11PM 29.5757 -136.9558 249° West 422 486 35,000  Level FlightAware Transoceanic
02:12PM 29.5330 -137.0806 249° West 422 486 35,000  Level FlightAware Transoceanic
02:13PM 29.4902 -137.2054 248° West 422 486 35,000  Level FlightAware Transoceanic
02:14PM 29.4450 -137.3199 249° West 425 489 35,000  Level FlightAware Transoceanic
02:15PM 29.4021 -137.4451 248° West 425 489 35,000  Level FlightAware Transoceanic
02:16PM 29.3591 -137.5701 248° West 425 489 35,000  Level FlightAware Transoceanic
02:17PM 29.3160 -137.6951 248° West 425 489 35,000  Level FlightAware Transoceanic
02:18PM 29.2727 -137.8199 248° West 425 489 35,000  Level FlightAware Transoceanic
02:19PM 29.2294 -137.9447 248° West 425 489 35,000  Level FlightAware Transoceanic
02:20PM 29.1859 -138.0693 248° West 425 489 35,000  Level FlightAware Transoceanic
02:21PM 29.1423 -138.1938 248° West 425 489 35,000  Level FlightAware Transoceanic
02:22PM 29.0986 -138.3183 248° West 425 489 35,000  Level FlightAware Transoceanic
02:22PM 29.1000 -138.3333 248° West 431 496 35,000  Level Oakland Oceanic (ODAPS)
02:23PM 29.0547 -138.4426 248° West 425 489 35,000  Level FlightAware Transoceanic
02:24PM 29.0108 -138.5668 248° West 425 489 35,000  Level FlightAware Transoceanic
02:25PM 28.9667 -138.6909 248° West 425 489 35,000  Level FlightAware Transoceanic
02:26PM 28.9226 -138.8149 248° West 425 489 35,000  Level FlightAware Transoceanic
02:27PM 28.8783 -138.9388 248° West 425 489 35,000  Level FlightAware Transoceanic
02:28PM 28.8008 -139.1591 247° West 431 496 35,000  Level FlightAware Transoceanic
02:29PM 28.7505 -139.2963 247° West 431 496 35,000  Level FlightAware Transoceanic
02:30PM 28.7000 -139.4333 247° West 431 496 35,000  Level FlightAware Transoceanic
02:30PM 28.7000 -139.4333 247° West 428 493 35,000  Level Oakland Oceanic (ODAPS)
02:31PM 28.6547 -139.5565 247° West 431 496 35,000  Level FlightAware Transoceanic
02:32PM 28.6093 -139.6795 247° West 431 496 35,000  Level FlightAware Transoceanic
02:33PM 28.5637 -139.8024 247° West 431 496 35,000  Level FlightAware Transoceanic
02:34PM 28.5181 -139.9252 247° West 431 496 35,000  Level FlightAware Transoceanic
02:35PM 28.4724 -140.0480 247° West 431 496 35,000  Level FlightAware Transoceanic
02:35PM 28.4500 -140.1000 247° West 427 491 35,000  Level Oakland Oceanic (ODAPS)
02:36PM 28.4265 -140.1706 247° West 431 496 35,000  Level FlightAware Transoceanic
02:37PM 28.3805 -140.2931 247° West 428 493 35,000  Level FlightAware Transoceanic
02:38PM 28.3345 -140.4155 247° West 428 493 35,000  Level FlightAware Transoceanic
02:39PM 28.2883 -140.5377 247° West 428 493 35,000  Level FlightAware Transoceanic
02:40PM 28.2420 -140.6599 247° West 428 493 35,000  Level FlightAware Transoceanic
02:41PM 28.1956 -140.7820 247° West 428 493 35,000  Level FlightAware Transoceanic
02:42PM 28.1701 -140.8422 247° West 427 491 35,000  Level FlightAware Transoceanic
02:43PM 28.1230 -140.9655 247° West 427 491 35,000  Level FlightAware Transoceanic
02:44PM 28.0759 -141.0887 247° West 427 491 35,000  Level FlightAware Transoceanic
02:45PM 28.0286 -141.2118 246° West 427 491 35,000  Level FlightAware Transoceanic
02:46PM 27.9812 -141.3348 246° West 427 491 35,000  Level FlightAware Transoceanic
02:47PM 27.9338 -141.4577 246° West 427 491 35,000  Level FlightAware Transoceanic
02:48PM 27.8862 -141.5804 246° West 427 491 35,000  Level FlightAware Transoceanic
02:49PM 27.8385 -141.7031 246° West 427 491 35,000  Level FlightAware Transoceanic
02:49PM 27.7833 -141.8667 246° West 435 501 35,000  Level Oakland Oceanic (ODAPS)
02:50PM 27.7906 -141.8257 246° West 427 491 35,000  Level FlightAware Transoceanic
02:51PM 27.7427 -141.9481 246° West 427 491 35,000  Level FlightAware Transoceanic
02:52PM 27.6947 -142.0705 246° West 427 491 35,000  Level FlightAware Transoceanic
02:53PM 27.6466 -142.1927 246° West 427 491 35,000  Level FlightAware Transoceanic
02:54PM 27.5983 -142.3148 246° West 427 491 35,000  Level FlightAware Transoceanic
02:55PM 27.5500 -142.4369 246° West 427 491 35,000  Level FlightAware Transoceanic
02:56PM 27.4870 -142.6135 246° West 435 501 35,000  Level FlightAware Transoceanic
02:57PM 27.4372 -142.7376 246° West 435 501 35,000  Level FlightAware Transoceanic
02:58PM 27.3873 -142.8615 246° West 435 501 35,000  Level FlightAware Transoceanic
02:59PM 27.3373 -142.9854 246° West 435 501 35,000  Level FlightAware Transoceanic
03:00PM 27.2872 -143.1091 245° Southwest 435 501 35,000  Level FlightAware Transoceanic
03:01PM 27.2370 -143.2328 245° Southwest 435 501 35,000  Level FlightAware Transoceanic
03:02PM 27.1867 -143.3563 245° Southwest 435 501 35,000  Level FlightAware Transoceanic
03:03PM 27.1362 -143.4797 245° Southwest 435 501 35,000  Level FlightAware Transoceanic
03:03PM 27.0833 -143.6167 245° Southwest 434 499 35,000  Level Oakland Oceanic (ODAPS)
03:04PM 27.0857 -143.6030 245° Southwest 435 501 35,000  Level FlightAware Transoceanic
03:05PM 27.0350 -143.7262 245° Southwest 435 501 35,000  Level FlightAware Transoceanic
03:06PM 26.9843 -143.8492 245° Southwest 435 501 35,000  Level FlightAware Transoceanic
03:07PM 26.9334 -143.9722 245° Southwest 435 501 35,000  Level FlightAware Transoceanic
03:08PM 26.8825 -144.0951 245° Southwest 435 501 35,000  Level FlightAware Transoceanic
03:09PM 26.8314 -144.2178 245° Southwest 435 501 35,000  Level FlightAware Transoceanic
03:10PM 26.7273 -144.4720 245° Southwest 434 499 35,000  Level FlightAware Transoceanic
03:11PM 26.6760 -144.5938 245° Southwest 434 499 35,000  Level FlightAware Transoceanic
03:12PM 26.6246 -144.7154 245° Southwest 434 499 35,000  Level FlightAware Transoceanic
03:13PM 26.5731 -144.8370 245° Southwest 434 499 35,000  Level FlightAware Transoceanic
03:14PM 26.5215 -144.9584 245° Southwest 434 499 35,000  Level FlightAware Transoceanic
03:15PM 26.4698 -145.0797 245° Southwest 434 499 35,000  Level FlightAware Transoceanic
03:16PM 26.4180 -145.2009 244° Southwest 434 499 35,000  Level FlightAware Transoceanic
03:17PM 26.3661 -145.3220 244° Southwest 434 499 35,000  Level FlightAware Transoceanic
03:17PM 26.3833 -145.3167 244° Southwest 416 479 35,000  Level Oakland Oceanic (ODAPS)
03:18PM 26.3141 -145.4430 244° Southwest 434 499 35,000  Level FlightAware Transoceanic
03:19PM 26.2620 -145.5639 244° Southwest 434 499 35,000  Level FlightAware Transoceanic
03:20PM 26.2098 -145.6847 244° Southwest 434 499 35,000  Level FlightAware Transoceanic
03:21PM 26.1575 -145.8053 244° Southwest 434 499 35,000  Level FlightAware Transoceanic
03:22PM 26.1051 -145.9259 244° Southwest 434 499 35,000  Level FlightAware Transoceanic
03:23PM 26.0526 -146.0463 244° Southwest 434 499 35,000  Level FlightAware Transoceanic
03:24PM 26.0482 -146.0607 243° Southwest 416 479 35,000  Level FlightAware Transoceanic
03:25PM 26.0000 -146.1667 244° Southwest 416 479 35,000  Level FlightAware Transoceanic
03:26PM 25.9492 -146.2840 244° Southwest 416 479 35,000  Level FlightAware Transoceanic
03:27PM 25.8983 -146.4012 244° Southwest 416 479 35,000  Level FlightAware Transoceanic
03:28PM 25.8472 -146.5182 244° Southwest 416 479 35,000  Level FlightAware Transoceanic
03:29PM 25.7962 -146.6353 244° Southwest 416 479 35,000  Level FlightAware Transoceanic
03:30PM 25.7449 -146.7521 244° Southwest 416 479 35,000  Level FlightAware Transoceanic
03:31PM 25.6937 -146.8689 244° Southwest 416 479 35,000  Level FlightAware Transoceanic
03:31PM 25.6833 -146.9167 244° Southwest 408 470 35,000  Level Oakland Oceanic (ODAPS)
03:32PM 25.6423 -146.9856 244° Southwest 416 479 35,000  Level FlightAware Transoceanic
03:33PM 25.5908 -147.1022 244° Southwest 416 479 35,000  Level FlightAware Transoceanic
03:34PM 25.5392 -147.2187 244° Southwest 416 479 35,000  Level FlightAware Transoceanic
03:35PM 25.4876 -147.3351 244° Southwest 416 479 35,000  Level FlightAware Transoceanic
03:36PM 25.4358 -147.4514 244° Southwest 416 479 35,000  Level FlightAware Transoceanic
03:37PM 25.3808 -147.5959 244° Southwest 408 470 35,000  Level FlightAware Transoceanic
03:38PM 25.3300 -147.7087 244° Southwest 408 470 35,000  Level FlightAware Transoceanic
03:39PM 25.2792 -147.8215 243° Southwest 408 470 35,000  Level FlightAware Transoceanic
03:40PM 25.2283 -147.9342 243° Southwest 408 470 35,000  Level FlightAware Transoceanic
03:41PM 25.1773 -148.0468 243° Southwest 408 470 35,000  Level FlightAware Transoceanic
03:42PM 25.1263 -148.1593 243° Southwest 408 470 35,000  Level FlightAware Transoceanic
03:43PM 25.0751 -148.2717 243° Southwest 408 470 35,000  Level FlightAware Transoceanic
03:44PM 25.0239 -148.3840 243° Southwest 408 470 35,000  Level FlightAware Transoceanic
03:45PM 24.9725 -148.4962 243° Southwest 408 470 35,000  Level FlightAware Transoceanic
03:45PM 24.9833 -148.4833 243° Southwest 408 470 35,000  Level Oakland Oceanic (ODAPS)
03:46PM 24.9211 -148.6083 243° Southwest 408 470 35,000  Level FlightAware Transoceanic
03:47PM 24.8696 -148.7203 243° Southwest 408 470 35,000  Level FlightAware Transoceanic
03:48PM 24.8181 -148.8322 243° Southwest 408 470 35,000  Level FlightAware Transoceanic
03:49PM 24.7664 -148.9441 243° Southwest 408 470 35,000  Level FlightAware Transoceanic
03:50PM 24.7147 -149.0558 243° Southwest 408 470 35,000  Level FlightAware Transoceanic
03:51PM 24.6719 -149.1568 243° Southwest 408 470 35,000  Level FlightAware Transoceanic
03:52PM 24.6197 -149.2687 243° Southwest 408 470 35,000  Level FlightAware Transoceanic
03:53PM 24.5675 -149.3805 243° Southwest 408 470 35,000  Level FlightAware Transoceanic
03:54PM 24.5151 -149.4922 243° Southwest 408 470 35,000  Level FlightAware Transoceanic
03:55PM 24.4627 -149.6039 243° Southwest 408 470 35,000  Level FlightAware Transoceanic
03:56PM 24.4101 -149.7154 243° Southwest 408 470 35,000  Level FlightAware Transoceanic
03:57PM 24.3575 -149.8268 243° Southwest 408 470 35,000  Level FlightAware Transoceanic
03:58PM 24.3048 -149.9382 243° Southwest 408 470 35,000  Level FlightAware Transoceanic
03:59PM 24.2521 -150.0495 242° Southwest 408 470 35,000  Level FlightAware Transoceanic
03:59PM 24.2500 -150.0500 243° Southwest 417 480 35,000  Level Oakland Oceanic (ODAPS)
04:00PM 24.1992 -150.1606 242° Southwest 408 470 35,000  Level FlightAware Transoceanic
04:01PM 24.1463 -150.2717 242° Southwest 408 470 35,000  Level FlightAware Transoceanic
04:02PM 24.0933 -150.3827 242° Southwest 408 470 35,000  Level FlightAware Transoceanic
04:03PM 24.0402 -150.4936 242° Southwest 408 470 35,000  Level FlightAware Transoceanic
04:04PM 23.9870 -150.6044 242° Southwest 408 470 35,000  Level FlightAware Transoceanic
04:05PM 23.9338 -150.7151 242° Southwest 408 470 35,000  Level FlightAware Transoceanic
04:06PM 23.8790 -150.8261 242° Southwest 417 480 35,000  Level FlightAware Transoceanic
04:07PM 23.8257 -150.9366 242° Southwest 417 480 35,000  Level FlightAware Transoceanic
04:08PM 23.7723 -151.0470 242° Southwest 417 480 35,000  Level FlightAware Transoceanic
04:09PM 23.7188 -151.1573 242° Southwest 417 480 35,000  Level FlightAware Transoceanic
04:10PM 23.6653 -151.2675 242° Southwest 417 480 35,000  Level FlightAware Transoceanic
04:11PM 23.6117 -151.3777 242° Southwest 417 480 35,000  Level FlightAware Transoceanic
04:12PM 23.5579 -151.4877 242° Southwest 417 480 35,000  Level FlightAware Transoceanic
04:13PM 23.5042 -151.5977 242° Southwest 417 480 35,000  Level FlightAware Transoceanic
04:13PM 23.5000 -151.6333 241° Southwest 416 479 35,000  Level Oakland Oceanic (ODAPS)
04:14PM 23.4503 -151.7076 242° Southwest 417 480 35,000  Level FlightAware Transoceanic
04:15PM 23.3964 -151.8174 242° Southwest 417 480 35,000  Level FlightAware Transoceanic
04:16PM 23.3424 -151.9270 242° Southwest 417 480 35,000  Level FlightAware Transoceanic
04:17PM 23.2883 -152.0367 242° Southwest 417 480 35,000  Level FlightAware Transoceanic
04:17PM 23.2500 -152.1000 242° Southwest 415 478 35,000  Level Oakland Oceanic (ODAPS)
04:18PM 23.2341 -152.1462 242° Southwest 417 480 35,000  Level FlightAware Transoceanic
04:19PM 23.1798 -152.2556 242° Southwest 417 480 35,000  Level FlightAware Transoceanic
04:20PM 23.0774 -152.4650 241° Southwest 416 479 35,000  Level FlightAware Transoceanic
04:21PM 23.0167 -152.5833 242° Southwest 416 479 35,000  Level FlightAware Transoceanic
04:21PM 22.9833 -152.6333 242° Southwest 430 495 35,000  Level Honolulu Center
04:22PM 22.9629 -152.6921 242° Southwest 416 479 35,000  Level FlightAware Transoceanic
04:22PM 22.9333 -152.7500 245° Southwest 420 483 35,000  Level Honolulu Center
04:23PM 22.9091 -152.8009 242° Southwest 416 479 35,000  Level FlightAware Transoceanic
04:23PM 22.8833 -152.8667 245° Southwest 420 483 35,000  Level Honolulu Center
04:24PM 22.8552 -152.9095 242° Southwest 415 478 35,000  Level FlightAware Transoceanic
04:24PM 22.8500 -153.0000 255° West 430 495 35,000  Level Honolulu Center
04:25PM 22.8012 -153.0180 242° Southwest 415 478 35,000  Level FlightAware Transoceanic
04:26PM 22.7471 -153.1265 242° Southwest 415 478 35,000  Level FlightAware Transoceanic
04:26PM 22.7833 -153.2500 254° West 430 495 35,000  Level Honolulu Center
04:27PM 22.6930 -153.2349 242° Southwest 415 478 35,000  Level FlightAware Transoceanic
04:27PM 22.7500 -153.3667 253° West 420 483 35,000  Level Honolulu Center
04:29PM 22.6705 -153.4665 229° Southwest  Level FlightAware Approximate
04:29PM 22.6667 -153.6000 229° Southwest 430 495 35,000  Level Honolulu Center
04:30PM 22.6333 -153.7167 253° West 420 483 35,000  Level Honolulu Center
04:31PM 22.6000 -153.8500 255° West 420 483 35,000  Level Honolulu Center
04:32PM 22.5667 -153.9667 253° West 420 483 35,000  Level Honolulu Center
04:33PM 22.5167 -154.0833 245° Southwest 420 483 35,000  Level Honolulu Center
04:34PM 22.4833 -154.2167 255° West 420 483 35,000  Level Honolulu Center
04:35PM 22.4500 -154.3333 253° West 420 483 35,000  Level Honolulu Center
04:36PM 22.4167 -154.4500 253° West 410 472 35,000  Level Honolulu Center
04:37PM 22.3667 -154.5667 245° Southwest 410 472 35,000  Level Honolulu Center
04:38PM 22.3333 -154.6833 253° West 410 472 35,000  Level Honolulu Center
04:39PM 22.3000 -154.8000 253° West 410 472 35,000 -480 Level Honolulu Center
04:40PM 22.2667 -154.9167 253° West 410 472 34,100 -1,200 Descending Honolulu Center
04:41PM 22.2167 -155.0333 245° Southwest 430 495 32,600 -1,200 Descending Honolulu Center
04:42PM 22.1833 -155.1500 253° West 430 495 31,800 -720 Descending Honolulu Center
04:43PM 22.1500 -155.2833 255° West 440 506 31,200 -900 Descending Honolulu Center
04:44PM 22.1000 -155.4000 245° Southwest 440 506 30,100 -1,080 Descending Honolulu Center
04:45PM 22.0667 -155.5333 255° West 440 506 29,100 -1,320 Descending Honolulu Center
04:46PM 22.0167 -155.6500 245° Southwest 440 506 27,500 -1,260 Descending Honolulu Center
04:47PM 21.9833 -155.7667 253° West 430 495 26,600 -960 Descending Honolulu Center
04:48PM 21.9500 -155.9000 255° West 420 483 25,600 -1,020 Descending Honolulu Center
04:49PM 21.9000 -156.0167 245° Southwest 430 495 24,600 -1,020 Descending Honolulu Center
04:50PM 21.8667 -156.1333 253° West 410 472 23,600 -1,020 Descending Honolulu Center
04:51PM 21.8333 -156.2333 250° West 380 437 22,600 -1,020 Descending Honolulu Center
04:52PM 21.8000 -156.3500 253° West 380 437 21,600 -1,020 Descending Honolulu Center
04:53PM 21.7667 -156.4500 250° West 380 437 20,600 -840 Descending Honolulu Center
04:54PM 21.7333 -156.5500 250° West 380 437 20,000 -1,200 Descending Honolulu Center
04:56PM 21.6500 -156.7833 249° West 390 449 17,100 -1,440 Descending Honolulu Center
04:57PM 21.6167 -156.8833 250° West 380 437 15,700 -1,200 Descending Honolulu Center
04:58PM 21.5833 -157.0000 253° West 380 437 14,800 -960 Descending Honolulu Center
05:00PM 21.5500 -157.1000 250° West 380 437 13,800 -1,080 Descending Honolulu Center
05:01PM 21.5167 -157.2000 250° West 350 403 12,700 -1,020 Descending Honolulu Center
05:02PM 21.4833 -157.2833 247° West 330 380 11,800 -960 Descending Honolulu Center
05:03PM 21.4500 -157.3833 250° West 340 391 10,800 -900 Descending Honolulu Center
05:04PM 21.4167 -157.4833 250° West 350 403 10,000 -420 Descending Honolulu Center
05:05PM 21.3833 -157.5833 250° West 330 380 10,000 -120 Level Honolulu Center
05:06PM 21.3500 -157.6500 242° Southwest 280 322 9,800 -900 Descending Honolulu Center
05:07PM 21.3167 -157.7333 247° West 270 311 8,300 -900 Descending Honolulu Center
05:08PM 21.3000 -157.8000 255° West 270 311 8,000 -300 Descending Honolulu Center
05:09PM 21.2667 -157.8833 247° West 260 299 7,800 -1,320 Descending Honolulu Center
05:10PM 21.2500 -157.9667 258° West 260 299 5,400 -2,280 Descending Honolulu Center
05:11PM 21.2500 -158.0333 270° West 240 276 3,300 -840 Descending Honolulu Center
05:13PM 21.3000 -158.1667 292° West 250 288 3,000 -120 Descending Honolulu Center
05:14PM 21.3167 -158.1167 70° East 200 230 3,000 -420 Level Honolulu Center
05:15PM 21.3167 -158.0500 90° East 190 219 2,200 -900 Descending Honolulu Center
05:16PM 21.3167 -158.0000 90° East 170 196 1,200 -900 Descending Honolulu Center
05:17PM 21.3167 -157.9500 90° East 150 173 400 -840 Descending Honolulu Center